Time;durP1;ratioP1;P1;durP2;ratioP2;P2;SDS_P1;SDS_P2;PMS_P1;PMS_P2;Temp;Humidity;BMP_temperature;BMP_pressure;BME280_temperature;BME280_humidity;BME280_pressure;Samples;Min_cycle;Max_cycle;Signal;HPM_P1;HPM_P2
2022/07/25 00:01:49;;;;;;;2.60;0.90;;;;;;;16.57;75.38;98875.65;104616;1273;61122;-24
2022/07/25 00:04:17;;;;;;;5.10;1.10;;;;;;;16.35;75.86;98877.85;104704;1273;61612;-24
2022/07/25 00:06:44;;;;;;;4.10;1.20;;;;;;;16.07;77.07;98875.75;104972;1273;76354;-24
2022/07/25 00:09:12;;;;;;;2.60;0.90;;;;;;;15.89;77.64;98872.17;105048;1273;76001;-24
2022/07/25 00:11:39;;;;;;;0.80;0.70;;;;;;;16.23;77.21;98872.58;104892;1273;75344;-24
2022/07/25 00:14:07;;;;;;;1.20;0.80;;;;;;;16.56;75.59;98874.86;104979;1272;63133;-24
2022/07/25 00:16:35;;;;;;;4.70;1.00;;;;;;;16.57;75.10;98880.89;104943;1273;62815;-25
2022/07/25 00:19:02;;;;;;;5.60;1.30;;;;;;;16.37;75.76;98877.92;104965;1273;76571;-24
2022/07/25 00:21:30;;;;;;;4.20;1.10;;;;;;;16.14;77.35;98879.39;104825;1273;77012;-24
2022/07/25 00:23:57;;;;;;;5.40;0.80;;;;;;;15.99;77.61;98876.01;105018;1273;75480;-24
2022/07/25 00:26:29;;;;;;;3.80;1.40;;;;;;;16.34;76.87;98874.08;105021;1273;61843;-24
2022/07/25 00:28:56;;;;;;;1.40;0.90;;;;;;;16.69;75.48;98871.27;104620;1273;63101;-25
2022/07/25 00:31:23;;;;;;;3.90;1.00;;;;;;;16.62;75.61;98868.89;104687;1274;75464;-25
2022/07/25 00:33:51;;;;;;;2.20;0.90;;;;;;;16.39;76.57;98872.81;104894;1273;74970;-24
2022/07/25 00:36:18;;;;;;;2.60;1.20;;;;;;;16.24;77.30;98873.27;105039;1273;74386;-24
2022/07/25 00:38:50;;;;;;;2.70;0.90;;;;;;;16.03;78.36;98873.39;105026;1273;64539;-24
2022/07/25 00:41:17;;;;;;;2.50;1.20;;;;;;;16.37;77.35;98874.46;104982;1273;63069;-24
2022/07/25 00:43:45;;;;;;;2.00;1.10;;;;;;;16.59;75.85;98869.46;104975;1273;75732;-25
2022/07/25 00:46:13;;;;;;;2.80;1.10;;;;;;;16.64;75.62;98871.23;105033;1273;77033;-25
2022/07/25 00:48:45;;;;;;;3.10;0.90;;;;;;;16.41;76.57;98874.52;104700;1273;75497;-24
2022/07/25 00:51:12;;;;;;;3.80;1.30;;;;;;;16.21;77.30;98872.98;105049;1273;62799;-24
2022/07/25 00:53:39;;;;;;;2.10;0.90;;;;;;;16.06;77.96;98873.02;104913;1272;62012;-24
2022/07/25 00:56:08;;;;;;;0.80;0.80;;;;;;;16.38;77.41;98873.12;104916;1273;75566;-25
2022/07/25 00:58:38;;;;;;;1.60;1.00;;;;;;;16.71;75.84;98866.41;104965;1273;75849;-25
2022/07/25 01:01:05;;;;;;;4.00;1.20;;;;;;;16.64;75.59;98867.52;104688;1273;74145;-24
2022/07/25 01:03:33;;;;;;;2.40;1.30;;;;;;;16.38;76.26;98871.38;104813;1273;62724;-24
2022/07/25 01:06:00;;;;;;;4.50;1.10;;;;;;;16.15;76.93;98875.55;104960;1273;61746;-24
2022/07/25 01:08:28;;;;;;;0.60;0.60;;;;;;;15.89;78.26;98875.66;104971;1273;75544;-24
2022/07/25 01:10:55;;;;;;;3.40;0.90;;;;;;;16.20;77.49;98877.02;104649;1275;77025;-24
2022/07/25 01:13:22;;;;;;;3.50;1.00;;;;;;;16.48;76.28;98880.98;105034;1273;74273;-25
2022/07/25 01:15:52;;;;;;;9.50;1.10;;;;;;;16.42;75.98;98884.24;104914;1273;61470;-25
2022/07/25 01:18:22;;;;;;;2.40;1.10;;;;;;;16.14;77.04;98884.58;104632;1273;62237;-24
2022/07/25 01:20:50;;;;;;;4.90;1.30;;;;;;;15.81;78.40;98886.72;104673;1273;76698;-24
2022/07/25 01:23:17;;;;;;;3.60;0.90;;;;;;;15.52;79.72;98885.10;104847;1273;76057;-24
2022/07/25 01:25:44;;;;;;;2.30;1.10;;;;;;;15.70;79.63;98886.96;104636;1273;73191;-25
2022/07/25 01:28:12;;;;;;;2.60;1.10;;;;;;;15.99;78.26;98884.48;104666;1273;61019;-24
2022/07/25 01:30:39;;;;;;;2.90;1.10;;;;;;;15.91;78.46;98882.80;104565;1273;61886;-24
2022/07/25 01:33:07;;;;;;;1.60;1.00;;;;;;;15.68;79.82;98882.23;104899;1273;75304;-24
2022/07/25 01:35:34;;;;;;;5.40;1.40;;;;;;;15.47;80.81;98880.56;104880;1274;76917;-24
2022/07/25 01:38:09;;;;;;;2.50;1.10;;;;;;;15.32;81.88;98878.83;104912;1273;75742;-24
2022/07/25 01:40:36;;;;;;;1.80;1.20;;;;;;;15.70;80.55;98879.06;104955;1273;61148;-24
2022/07/25 01:43:03;;;;;;;4.70;0.90;;;;;;;15.94;79.41;98874.50;104842;1273;62034;-24
2022/07/25 01:45:31;;;;;;;2.00;1.30;;;;;;;15.92;79.13;98877.81;104742;1273;76413;-24
2022/07/25 01:47:58;;;;;;;1.20;1.00;;;;;;;15.76;79.75;98876.70;104739;1274;77021;-24
2022/07/25 01:50:25;;;;;;;2.80;1.30;;;;;;;15.56;80.76;98875.75;104989;1273;75398;-24
2022/07/25 01:52:53;;;;;;;6.70;1.10;;;;;;;15.40;81.35;98883.05;104817;1273;63456;-24
2022/07/25 01:55:20;;;;;;;3.80;1.20;;;;;;;15.78;80.13;98879.53;104878;1273;61167;-24
2022/07/25 01:57:47;;;;;;;2.20;1.40;;;;;;;16.00;78.71;98881.23;104968;1273;74917;-24
2022/07/25 02:00:16;;;;;;;2.90;1.20;;;;;;;15.86;78.53;98887.39;105000;1273;76227;-24
2022/07/25 02:02:44;;;;;;;5.20;1.40;;;;;;;15.61;79.52;98887.30;104969;1274;75461;-25
2022/07/25 02:05:12;;;;;;;3.90;1.60;;;;;;;15.32;81.00;98884.39;104540;1273;63698;-24
2022/07/25 02:07:39;;;;;;;2.20;1.00;;;;;;;15.17;81.59;98884.52;104755;1273;63083;-24
2022/07/25 02:10:07;;;;;;;2.00;1.20;;;;;;;15.50;80.22;98883.02;104817;1274;76971;-24
2022/07/25 02:12:35;;;;;;;1.60;1.30;;;;;;;15.63;79.44;98881.05;104503;1273;76967;-25
2022/07/25 02:15:02;;;;;;;3.10;1.60;;;;;;;15.51;79.69;98882.25;104686;1273;73326;-24
2022/07/25 02:17:30;;;;;;;1.50;1.20;;;;;;;15.29;80.58;98878.65;105006;1273;61050;-24
2022/07/25 02:19:57;;;;;;;6.10;1.10;;;;;;;15.09;81.59;98877.02;105084;1273;61218;-24
2022/07/25 02:22:25;;;;;;;3.20;1.40;;;;;;;15.32;80.72;98876.39;105086;1273;76650;-24
2022/07/25 02:24:52;;;;;;;3.90;1.30;;;;;;;15.50;79.85;98877.71;104814;1273;76970;-24
2022/07/25 02:27:19;;;;;;;1.60;1.30;;;;;;;15.42;79.88;98880.02;104851;1273;75516;-24
2022/07/25 02:29:48;;;;;;;1.80;1.30;;;;;;;15.19;80.11;98880.71;104892;1273;63265;-24
2022/07/25 02:32:16;;;;;;;1.40;1.20;;;;;;;14.93;81.39;98883.45;104637;1274;61064;-24
2022/07/25 02:34:43;;;;;;;1.90;1.20;;;;;;;14.77;82.44;98886.85;104876;1273;76619;-24
2022/07/25 02:37:11;;;;;;;4.40;1.20;;;;;;;15.19;81.03;98887.64;104898;1275;77033;-25
2022/07/25 02:39:39;;;;;;;3.80;2.10;;;;;;;15.50;79.47;98885.21;105074;1273;73613;-25
2022/07/25 02:42:06;;;;;;;4.80;1.50;;;;;;;15.42;79.32;98886.16;105128;1273;62475;-24
2022/07/25 02:44:33;;;;;;;3.00;1.50;;;;;;;15.17;80.09;98880.35;105057;1274;62769;-24
2022/07/25 02:47:01;;;;;;;3.00;1.60;;;;;;;14.88;81.29;98875.96;104737;1274;76622;-24
2022/07/25 02:49:28;;;;;;;1.80;1.00;;;;;;;14.68;82.36;98882.09;104653;1274;76988;-24
2022/07/25 02:51:56;;;;;;;2.90;1.20;;;;;;;15.08;81.22;98877.21;104739;1273;75671;-24
2022/07/25 02:54:23;;;;;;;2.60;2.10;;;;;;;15.48;79.57;98876.46;104684;1276;62807;-24
2022/07/25 02:56:51;;;;;;;3.40;1.60;;;;;;;15.53;78.68;98874.56;105040;1273;62781;-25
2022/07/25 02:59:18;;;;;;;4.80;1.50;;;;;;;15.48;78.57;98882.20;104909;1274;76437;-24
2022/07/25 03:01:45;;;;;;;2.80;1.30;;;;;;;15.39;78.65;98883.04;104771;1273;76760;-25
2022/07/25 03:04:13;;;;;;;1.90;1.10;;;;;;;15.37;79.18;98887.75;104623;1274;75593;-25
2022/07/25 03:06:43;;;;;;;2.30;1.40;;;;;;;15.83;77.38;98889.84;104897;1274;62823;-24
2022/07/25 03:09:10;;;;;;;3.10;1.60;;;;;;;16.41;75.58;98894.89;104722;1274;63448;-24
2022/07/25 03:11:38;;;;;;;2.40;1.40;;;;;;;16.40;74.83;98897.55;104615;1275;74630;-25
2022/07/25 03:14:07;;;;;;;1.90;1.30;;;;;;;16.35;74.82;98899.17;104823;1273;75741;-24
2022/07/25 03:16:35;;;;;;;5.20;1.80;;;;;;;16.13;75.78;98900.14;104837;1273;75125;-24
2022/07/25 03:19:03;;;;;;;6.00;1.00;;;;;;;16.02;76.29;98900.21;105054;1273;64713;-24
2022/07/25 03:21:30;;;;;;;6.10;1.10;;;;;;;16.46;74.89;98902.93;104666;1274;63285;-24
2022/07/25 03:23:57;;;;;;;4.00;1.80;;;;;;;16.87;73.34;98905.33;104613;1274;75565;-24
2022/07/25 03:26:25;;;;;;;3.00;1.40;;;;;;;16.95;72.90;98902.73;104604;1274;76854;-24
2022/07/25 03:28:52;;;;;;;1.70;1.60;;;;;;;16.81;73.32;98902.59;104726;1274;74061;-24
2022/07/25 03:31:19;;;;;;;1.90;1.20;;;;;;;16.61;73.79;98901.27;104737;1274;61482;-23
2022/07/25 03:33:47;;;;;;;5.70;1.50;;;;;;;16.41;74.83;98896.09;104848;1274;62210;-24
2022/07/25 03:36:14;;;;;;;3.60;1.50;;;;;;;16.30;75.55;98889.80;104866;1273;76590;-24
2022/07/25 03:38:42;;;;;;;6.50;1.70;;;;;;;16.65;74.45;98892.28;104646;1273;77029;-25
2022/07/25 03:41:09;;;;;;;3.50;1.70;;;;;;;17.01;73.49;98892.55;104608;1274;74140;-25
2022/07/25 03:43:36;;;;;;;1.80;1.30;;;;;;;17.05;72.97;98894.41;104699;1274;63063;-25
2022/07/25 03:46:04;;;;;;;2.80;1.60;;;;;;;16.85;73.88;98894.13;104884;1274;62508;-23
2022/07/25 03:48:31;;;;;;;2.40;1.60;;;;;;;16.81;74.33;98895.45;104587;1273;76422;-23
2022/07/25 03:50:59;;;;;;;4.20;1.10;;;;;;;16.78;74.63;98899.45;104771;1274;77061;-23
2022/07/25 03:54:00;;;;;;;2.60;1.40;;;;;;;17.02;73.56;98900.30;104921;1275;75576;-22
2022/07/25 03:56:20;;;;;;;6.00;1.60;;;;;;;17.21;72.81;98899.52;104708;1274;61229;-22
2022/07/25 03:58:47;;;;;;;3.30;1.70;;;;;;;16.96;73.62;98898.15;104685;1274;63164;-22
2022/07/25 04:01:15;;;;;;;3.90;1.70;;;;;;;16.66;74.79;98900.03;104925;1274;76508;-22
2022/07/25 04:03:45;;;;;;;5.50;1.90;;;;;;;16.48;76.02;98900.43;104831;1274;75936;-23
2022/07/25 04:06:12;;;;;;;6.10;1.40;;;;;;;16.10;77.62;98896.10;104879;1273;75637;-23
2022/07/25 04:08:40;;;;;;;2.10;1.50;;;;;;;16.49;76.30;98899.41;104515;1273;62001;-23
2022/07/25 04:11:07;;;;;;;4.40;1.80;;;;;;;16.77;74.82;98893.42;104609;1273;61955;-23
2022/07/25 04:13:34;;;;;;;3.20;1.60;;;;;;;16.54;75.74;98895.75;104611;1274;76531;-23
2022/07/25 04:16:01;;;;;;;3.50;1.80;;;;;;;16.45;76.15;98892.16;104781;1274;77230;-23
2022/07/25 04:18:30;;;;;;;5.40;1.70;;;;;;;16.29;76.94;98899.98;104643;1277;75330;-23
2022/07/25 04:21:00;;;;;;;3.60;1.50;;;;;;;16.24;77.70;98897.41;104687;1274;64742;-23
2022/07/25 04:23:27;;;;;;;1.80;1.40;;;;;;;16.64;76.24;98894.95;104714;1274;63083;-22
2022/07/25 04:25:55;;;;;;;3.90;1.70;;;;;;;16.97;74.90;98888.08;104667;1274;76728;-23
2022/07/25 04:28:26;;;;;;;4.10;1.80;;;;;;;17.02;74.66;98890.34;105007;1274;75823;-22
2022/07/25 04:30:53;;;;;;;2.50;1.80;;;;;;;17.02;74.83;98889.09;104627;1274;74097;-23
2022/07/25 04:33:20;;;;;;;3.60;1.80;;;;;;;16.84;75.39;98889.14;104705;1274;61916;-23
2022/07/25 04:35:49;;;;;;;2.00;1.50;;;;;;;16.74;76.22;98886.05;104939;1274;63496;-22
2022/07/25 04:38:17;;;;;;;1.80;1.30;;;;;;;16.98;76.38;98884.90;105015;1273;75304;-22
2022/07/25 04:40:44;;;;;;;4.50;1.50;;;;;;;17.45;73.65;98878.63;104825;1274;76014;-22
2022/07/25 04:43:11;;;;;;;4.80;1.60;;;;;;;17.42;73.52;98876.98;105048;1274;75450;-23
2022/07/25 04:45:39;;;;;;;9.50;1.90;;;;;;;17.48;73.72;98879.62;104988;1273;63125;-23
2022/07/25 04:48:06;;;;;;;4.00;1.70;;;;;;;17.50;73.89;98877.86;104900;1274;63168;-22
2022/07/25 04:50:34;;;;;;;3.80;2.00;;;;;;;17.19;74.49;98872.71;104706;1274;76617;-23
2022/07/25 04:53:01;;;;;;;2.00;1.20;;;;;;;17.12;75.51;98872.95;104653;1274;75925;-23
2022/07/25 04:55:29;;;;;;;1.70;1.40;;;;;;;17.69;73.96;98872.17;104635;1274;75158;-23
2022/07/25 04:57:56;;;;;;;4.20;1.80;;;;;;;18.14;72.04;98871.77;104785;1274;62746;-23
2022/07/25 05:00:25;;;;;;;6.20;1.90;;;;;;;18.09;71.34;98869.42;105071;1274;61072;-23
2022/07/25 05:02:53;;;;;;;3.30;1.70;;;;;;;18.07;72.37;98870.75;104540;1274;75509;-23
2022/07/25 05:05:20;;;;;;;2.10;1.70;;;;;;;17.88;72.76;98868.31;104709;1274;75901;-23
2022/07/25 05:07:49;;;;;;;2.50;2.10;;;;;;;17.81;73.06;98873.08;104798;1274;75557;-23
2022/07/25 05:10:16;;;;;;;1.40;1.30;;;;;;;17.52;73.88;98874.54;104663;1274;63032;-24
2022/07/25 05:12:44;;;;;;;5.00;1.60;;;;;;;17.44;74.46;98875.94;105014;1274;62745;-24
2022/07/25 05:15:11;;;;;;;2.70;1.80;;;;;;;17.95;73.04;98873.23;104645;1274;75208;-24
2022/07/25 05:17:38;;;;;;;3.50;1.70;;;;;;;18.11;72.19;98870.81;104887;1274;76164;-25
2022/07/25 05:20:07;;;;;;;5.80;2.10;;;;;;;18.07;72.96;98868.02;104734;1274;74376;-24
2022/07/25 05:22:34;;;;;;;3.30;2.10;;;;;;;18.12;72.36;98869.43;104546;1274;63197;-25
2022/07/25 05:25:02;;;;;;;4.40;1.90;;;;;;;17.83;73.28;98863.58;104741;1274;63199;-24
2022/07/25 05:27:29;;;;;;;6.30;1.80;;;;;;;17.88;73.69;98863.38;104801;1275;76593;-24
2022/07/25 05:29:57;;;;;;;1.40;1.30;;;;;;;18.09;73.24;98858.39;105037;1274;77051;-24
2022/07/25 05:32:24;;;;;;;2.90;1.80;;;;;;;18.57;71.20;98857.55;104981;1274;73990;-25
2022/07/25 05:34:51;;;;;;;4.40;1.90;;;;;;;19.08;69.79;98857.50;104929;1274;61936;-25
2022/07/25 05:37:19;;;;;;;2.60;1.80;;;;;;;18.85;69.62;98856.95;104983;1274;61817;-25
2022/07/25 05:39:47;;;;;;;2.20;1.60;;;;;;;18.68;70.75;98859.09;104965;1274;76588;-25
2022/07/25 05:42:14;;;;;;;6.20;1.90;;;;;;;18.70;70.35;98865.15;105112;1273;75438;-24
2022/07/25 05:44:42;;;;;;;2.90;1.90;;;;;;;18.54;71.41;98855.64;104698;1274;74443;-25
2022/07/25 05:47:09;;;;;;;2.80;1.90;;;;;;;18.39;71.66;98855.60;104898;1274;63324;-24
2022/07/25 05:49:39;;;;;;;4.20;1.80;;;;;;;17.98;73.04;98857.14;104975;1273;62945;-24
2022/07/25 05:52:06;;;;;;;2.30;1.50;;;;;;;17.89;73.74;98858.00;104789;1273;76594;-25
2022/07/25 05:54:39;;;;;;;3.10;1.70;;;;;;;18.36;72.88;98863.16;104515;1273;380505;-25
2022/07/25 05:57:06;;;;;;;3.20;1.50;;;;;;;18.69;71.61;98864.51;104701;1273;75124;-25
2022/07/25 05:59:35;;;;;;;4.60;2.20;;;;;;;18.55;71.38;98862.52;105104;1272;62009;-25
2022/07/25 06:02:03;;;;;;;2.40;1.90;;;;;;;18.35;72.55;98869.13;104975;1274;63026;-24
2022/07/25 06:04:31;;;;;;;5.90;1.80;;;;;;;18.33;73.36;98871.13;104670;1273;75417;-25
2022/07/25 06:06:58;;;;;;;3.90;1.80;;;;;;;18.30;73.74;98868.77;104645;1276;76976;-25
2022/07/25 06:09:27;;;;;;;2.30;1.70;;;;;;;18.31;73.89;98872.56;104755;1273;74334;-23
2022/07/25 06:11:54;;;;;;;1.70;1.60;;;;;;;18.53;72.44;98873.36;104713;1273;61043;-23
2022/07/25 06:14:27;;;;;;;2.80;1.60;;;;;;;18.88;71.76;98878.98;104872;1273;61118;-23
2022/07/25 06:16:55;;;;;;;2.10;1.90;;;;;;;18.74;71.58;98876.48;104990;1273;76553;-23
2022/07/25 06:19:23;;;;;;;3.60;2.00;;;;;;;18.51;72.34;98871.07;104831;1273;76996;-23
2022/07/25 06:21:52;;;;;;;2.40;1.70;;;;;;;18.55;73.01;98871.48;104961;1273;74972;-23
2022/07/25 06:24:19;;;;;;;6.50;2.00;;;;;;;18.59;72.80;98867.48;104753;1275;61163;-23
2022/07/25 06:26:47;;;;;;;1.70;1.50;;;;;;;18.62;72.69;98868.30;104990;1273;61948;-23
2022/07/25 06:29:14;;;;;;;2.90;1.70;;;;;;;19.19;71.04;98869.00;104746;1273;76620;-23
2022/07/25 06:31:44;;;;;;;2.70;1.90;;;;;;;19.62;70.23;98868.63;104840;1274;75821;-23
2022/07/25 06:34:13;;;;;;;3.00;1.70;;;;;;;19.57;68.90;98871.50;104905;1273;74494;-23
2022/07/25 06:36:40;;;;;;;1.90;1.70;;;;;;;19.31;69.25;98872.73;104989;1273;63073;-23
2022/07/25 06:39:08;;;;;;;1.90;1.40;;;;;;;19.02;70.05;98876.33;104923;1273;62686;-24
2022/07/25 06:41:36;;;;;;;1.90;1.60;;;;;;;18.91;70.87;98878.73;104915;1273;76568;-24
2022/07/25 06:44:04;;;;;;;2.70;1.70;;;;;;;18.71;71.41;98876.32;104551;1273;77013;-24
2022/07/25 06:46:32;;;;;;;1.40;1.30;;;;;;;18.51;72.30;98872.85;104699;1273;75473;-23
2022/07/25 06:48:59;;;;;;;1.90;1.60;;;;;;;18.96;71.40;98872.80;104722;1274;61732;-23
2022/07/25 06:51:27;;;;;;;1.60;1.50;;;;;;;19.24;70.43;98867.19;105094;1272;62004;-23
2022/07/25 06:53:55;;;;;;;3.00;1.80;;;;;;;19.36;70.46;98869.48;104684;1273;74764;-23
2022/07/25 06:56:23;;;;;;;2.00;1.60;;;;;;;19.35;69.93;98866.77;104639;1273;76448;-23
2022/07/25 06:58:52;;;;;;;2.40;1.60;;;;;;;19.20;70.07;98866.41;104640;1273;75339;-23
2022/07/25 07:01:19;;;;;;;2.20;1.50;;;;;;;18.93;71.09;98868.83;104865;1273;61716;-23
2022/07/25 07:03:47;;;;;;;1.70;1.60;;;;;;;18.71;72.02;98868.58;104846;1273;61746;-23
2022/07/25 07:06:15;;;;;;;1.10;1.00;;;;;;;18.36;73.54;98871.88;104818;1273;75658;-23
2022/07/25 07:08:42;;;;;;;2.20;1.40;;;;;;;18.73;72.58;98876.91;104886;1273;76733;-23
2022/07/25 07:11:12;;;;;;;1.60;1.10;;;;;;;19.17;71.70;98870.02;104975;1273;75769;-23
2022/07/25 07:13:40;;;;;;;2.10;1.20;;;;;;;19.30;70.44;98868.34;104716;1273;61892;-23
2022/07/25 07:16:07;;;;;;;3.80;1.50;;;;;;;19.36;71.04;98874.46;104759;1274;61238;-23
2022/07/25 07:18:35;;;;;;;1.50;1.30;;;;;;;19.32;71.14;98874.55;104632;1273;75565;-23
2022/07/25 07:23:22;;;;;;;1.80;1.30;;;;;;;19.32;70.39;98871.13;101822;1310;601397;-23
2022/07/25 07:25:51;;;;;;;1.20;1.10;;;;;;;19.23;70.14;98871.95;104275;1284;63673;-23
2022/07/25 07:28:18;;;;;;;1.30;1.20;;;;;;;19.53;69.80;98865.48;104419;1284;63086;-23
2022/07/25 07:30:46;;;;;;;1.80;1.40;;;;;;;19.90;67.81;98868.61;104431;1284;75058;-23
2022/07/25 07:33:34;;;;;;;1.60;1.40;;;;;;;20.00;68.10;98866.67;104389;1284;77380;-23
2022/07/25 07:36:01;;;;;;;2.20;1.60;;;;;;;19.71;68.01;98867.38;103575;1284;416886;-24
2022/07/25 07:38:28;;;;;;;4.80;1.40;;;;;;;19.58;68.76;98868.71;104324;1281;62979;-23
2022/07/25 07:40:56;;;;;;;3.40;1.50;;;;;;;19.86;67.65;98866.62;104388;1281;61709;-23
2022/07/25 07:43:23;;;;;;;2.20;1.40;;;;;;;20.05;67.88;98866.11;104382;1281;75077;-23
2022/07/25 07:45:59;;;;;;;1.70;1.30;;;;;;;20.36;66.70;98870.67;104370;1281;76228;-23
2022/07/25 07:48:28;;;;;;;7.30;2.10;;;;;;;20.09;66.42;98860.56;104305;1281;75771;-23
2022/07/25 07:50:56;;;;;;;5.50;1.50;;;;;;;19.79;67.59;98869.20;104345;1281;62850;-23
2022/07/25 07:56:10;;;;;;;1.30;1.10;;;;;;;19.29;69.10;98868.01;103969;1281;74554;-23
2022/07/25 07:58:38;;;;;;;2.60;0.90;;;;;;;19.28;70.29;98870.80;104380;1281;75960;-23
2022/07/25 08:01:05;;;;;;;1.00;0.90;;;;;;;19.66;68.34;98874.29;104438;1281;75157;-23
2022/07/25 08:03:33;;;;;;;1.40;1.00;;;;;;;19.91;67.06;98866.39;104482;1281;63221;-23
2022/07/25 08:06:00;;;;;;;1.10;1.00;;;;;;;20.01;66.32;98866.31;104422;1281;63059;-23
2022/07/25 08:08:28;;;;;;;2.00;1.10;;;;;;;20.34;66.16;98868.79;104396;1281;73968;-23
2022/07/25 08:10:58;;;;;;;1.40;1.00;;;;;;;20.11;65.23;98860.44;104435;1281;76959;-23
2022/07/25 08:13:27;;;;;;;1.90;0.90;;;;;;;19.57;67.31;98868.90;104466;1281;75380;-23
2022/07/25 08:15:57;;;;;;;2.10;1.10;;;;;;;19.63;67.85;98870.77;104289;1281;62675;-22
2022/07/25 08:18:26;;;;;;;1.20;1.10;;;;;;;19.60;66.93;98865.89;104294;1281;61662;-23
2022/07/25 08:20:53;;;;;;;1.20;1.00;;;;;;;19.18;67.45;98868.41;103972;1284;74491;-24
2022/07/25 08:23:30;;;;;;;1.30;1.20;;;;;;;19.25;68.17;98865.36;104114;1281;76750;-23
2022/07/25 08:25:58;;;;;;;1.40;1.10;;;;;;;19.54;67.61;98866.80;103909;1282;75629;-23
2022/07/25 08:28:25;;;;;;;1.40;1.00;;;;;;;19.42;67.52;98868.42;104330;1281;61868;-24
2022/07/25 08:30:55;;;;;;;1.20;1.10;;;;;;;19.42;68.12;98872.13;104665;1274;63629;-23
2022/07/25 08:33:22;;;;;;;1.40;1.00;;;;;;;19.54;67.30;98870.98;104653;1274;75658;-23
2022/07/25 08:35:53;;;;;;;1.70;1.60;;;;;;;19.95;64.05;98870.56;104781;1274;77049;-23
2022/07/25 08:38:23;;;;;;;1.30;0.90;;;;;;;20.36;62.63;98874.63;104686;1275;74267;-24
2022/07/25 08:40:52;;;;;;;2.60;0.90;;;;;;;20.56;62.67;98865.88;104425;1275;62183;-23
2022/07/25 08:43:19;;;;;;;0.70;0.70;;;;;;;20.50;62.04;98868.57;104351;1274;62098;-25
2022/07/25 08:45:49;;;;;;;1.10;0.80;;;;;;;20.71;61.41;98869.27;104672;1274;75600;-24
2022/07/25 08:48:22;;;;;;;1.10;0.80;;;;;;;20.79;59.89;98859.59;104406;1274;76911;-23
2022/07/25 08:50:50;;;;;;;0.80;0.70;;;;;;;21.19;58.93;98858.81;104298;1274;74394;-23
2022/07/25 08:53:19;;;;;;;2.50;1.00;;;;;;;21.59;59.33;98861.11;104714;1275;62867;-23
2022/07/25 08:56:03;;;;;;;1.20;0.90;;;;;;;21.41;59.02;98860.22;104681;1274;61129;-25
2022/07/25 08:58:39;;;;;;;1.50;0.90;;;;;;;21.02;59.83;98866.82;104693;1274;74688;-25
2022/07/25 09:01:06;;;;;;;0.70;0.70;;;;;;;21.02;59.39;98860.59;104534;1275;75881;-25
2022/07/25 09:03:35;;;;;;;0.90;0.70;;;;;;;21.35;58.80;98857.67;104718;1274;75505;-25
2022/07/25 09:06:21;;;;;;;3.50;1.00;;;;;;;21.72;58.23;98860.65;104775;1274;63076;-25
2022/07/25 09:08:56;;;;;;;5.00;0.80;;;;;;;22.10;56.16;98857.57;104683;1274;61890;-25
2022/07/25 09:11:33;;;;;;;1.20;0.90;;;;;;;22.73;56.16;98854.03;104696;1274;75559;-25
2022/07/25 09:14:06;;;;;;;1.40;0.90;;;;;;;22.77;54.76;98852.59;104452;1274;76058;-26
2022/07/25 09:16:37;;;;;;;2.80;0.80;;;;;;;21.81;56.77;98856.58;104623;1274;74335;-23
2022/07/25 09:19:17;;;;;;;1.60;0.80;;;;;;;21.10;57.63;98852.88;104715;1274;62072;-23
2022/07/25 09:21:56;;;;;;;1.40;0.90;;;;;;;21.34;59.02;98857.05;104856;1274;62569;-23
2022/07/25 09:24:25;;;;;;;0.80;0.70;;;;;;;22.03;56.90;98855.36;104666;1275;75918;-24
2022/07/25 09:26:54;;;;;;;1.30;0.80;;;;;;;22.33;54.88;98845.55;104730;1275;77101;-23
2022/07/25 09:29:31;;;;;;;1.50;0.80;;;;;;;22.93;54.78;98848.73;104775;1274;75363;-23
2022/07/25 09:31:59;;;;;;;0.70;0.60;;;;;;;22.38;52.22;98838.05;104818;1275;62791;-23
2022/07/25 09:34:30;;;;;;;0.70;0.60;;;;;;;21.68;55.21;98851.59;104783;1275;61669;-23
2022/07/25 09:36:58;;;;;;;1.40;0.80;;;;;;;21.88;55.60;98849.11;104676;1275;74592;-23
2022/07/25 09:39:37;;;;;;;2.50;1.00;;;;;;;22.50;53.86;98848.86;104919;1275;76147;-23
2022/07/25 09:42:25;;;;;;;1.50;0.70;;;;;;;23.04;53.17;98848.77;105028;1274;75143;-23
2022/07/25 09:45:11;;;;;;;1.10;0.90;;;;;;;23.27;50.80;98832.05;104808;1274;61753;-23
2022/07/25 09:47:53;;;;;;;0.90;0.80;;;;;;;22.83;50.84;98838.98;104773;1274;61006;-23
2022/07/25 09:50:21;;;;;;;1.70;0.90;;;;;;;23.05;52.50;98840.64;104814;1275;75789;-23
2022/07/25 09:52:52;;;;;;;0.70;0.70;;;;;;;23.46;51.51;98837.45;104698;1274;76835;-23
2022/07/25 09:55:20;;;;;;;0.80;0.80;;;;;;;23.31;52.18;98837.05;104623;1274;75140;-23
2022/07/25 09:57:48;;;;;;;0.90;0.70;;;;;;;22.75;52.20;98836.37;104801;1274;63390;-23
2022/07/25 10:00:23;;;;;;;2.20;0.90;;;;;;;22.64;50.80;98833.09;104925;1274;63211;-23
2022/07/25 10:03:16;;;;;;;1.10;0.80;;;;;;;22.91;51.83;98834.53;104767;1274;74895;-23
2022/07/25 10:05:50;;;;;;;2.30;0.80;;;;;;;23.63;52.29;98822.79;105128;1274;77184;-23
2022/07/25 10:08:17;;;;;;;1.40;0.80;;;;;;;22.95;52.37;98831.64;104853;1275;75357;-23
2022/07/25 10:10:45;;;;;;;1.00;0.90;;;;;;;22.83;53.25;98834.09;105071;1273;62147;-23
2022/07/25 10:13:15;;;;;;;1.80;1.00;;;;;;;23.00;51.93;98833.34;104987;1274;62573;-23
2022/07/25 10:15:43;;;;;;;1.20;0.90;;;;;;;23.37;50.86;98833.59;104427;1274;74816;-23
2022/07/25 10:18:11;;;;;;;0.80;0.70;;;;;;;23.12;49.92;98834.77;104794;1274;76994;-23
2022/07/25 10:20:38;;;;;;;0.90;0.80;;;;;;;22.47;50.67;98833.79;104856;1274;75373;-23
2022/07/25 10:23:35;;;;;;;1.20;0.90;;;;;;;22.22;50.97;98836.01;105092;1274;61159;-23
2022/07/25 10:26:12;;;;;;;1.70;0.90;;;;;;;22.67;50.62;98833.52;104657;1272;62617;-25
2022/07/25 10:28:41;;;;;;;1.40;0.70;;;;;;;23.18;51.49;98827.55;104685;1275;74417;-23
2022/07/25 10:31:33;;;;;;;1.70;0.80;;;;;;;23.51;48.68;98828.23;104760;1274;76960;-23
2022/07/25 10:34:02;;;;;;;0.70;0.70;;;;;;;23.89;46.88;98825.63;104777;1277;75386;-23
2022/07/25 10:36:44;;;;;;;1.00;0.70;;;;;;;24.18;46.82;98827.98;104652;1275;62209;-23
2022/07/25 10:39:12;;;;;;;1.60;0.80;;;;;;;24.47;44.41;98822.56;104628;1274;61659;-23
2022/07/25 10:41:42;;;;;;;0.80;0.80;;;;;;;24.33;45.58;98816.55;104630;1277;75784;-23
2022/07/25 10:44:13;;;;;;;0.80;0.70;;;;;;;23.84;46.82;98815.13;104786;1274;76938;-23
2022/07/25 10:46:43;;;;;;;1.30;0.60;;;;;;;23.74;47.79;98814.16;104746;1277;75392;-23
2022/07/25 10:49:24;;;;;;;1.00;0.70;;;;;;;23.34;50.67;98814.68;104844;1277;62833;-22
2022/07/25 10:51:59;;;;;;;1.40;0.90;;;;;;;23.19;51.46;98811.77;104878;1275;63044;-23
2022/07/25 10:54:39;;;;;;;1.30;0.70;;;;;;;22.86;51.25;98812.80;104702;1275;76014;-25
2022/07/25 10:57:13;;;;;;;0.70;0.70;;;;;;;22.27;52.41;98807.25;104643;1275;75708;-25
2022/07/25 10:59:41;;;;;;;1.00;0.70;;;;;;;22.20;52.63;98814.23;104707;1275;75096;-25
2022/07/25 11:02:15;;;;;;;0.80;0.70;;;;;;;22.28;51.87;98812.45;105124;1274;61726;-22
2022/07/25 11:05:00;;;;;;;0.80;0.60;;;;;;;22.45;51.84;98808.29;104775;1275;61689;-23
2022/07/25 11:07:34;;;;;;;1.60;0.90;;;;;;;22.31;51.94;98806.70;104835;1274;75727;-24
2022/07/25 11:10:03;;;;;;;1.90;0.80;;;;;;;22.48;52.77;98807.30;105024;1274;75889;-25
2022/07/25 11:12:31;;;;;;;1.20;0.80;;;;;;;22.64;52.87;98808.88;104869;1274;75459;-25
2022/07/25 11:15:02;;;;;;;0.80;0.80;;;;;;;22.63;52.55;98805.94;104859;1275;61246;-25
2022/07/25 11:17:29;;;;;;;0.80;0.50;;;;;;;22.67;52.33;98805.19;104728;1275;61126;-24
2022/07/25 11:20:07;;;;;;;0.90;0.90;;;;;;;22.69;52.63;98807.88;105066;1274;75801;-23
2022/07/25 11:22:35;;;;;;;1.20;0.90;;;;;;;22.81;52.76;98806.85;104762;1274;77056;-24
2022/07/25 11:25:13;;;;;;;1.00;0.60;;;;;;;22.54;51.19;98802.96;105055;1274;75152;-24
2022/07/25 11:27:41;;;;;;;1.20;0.80;;;;;;;22.65;51.17;98801.08;104763;1274;61940;-24
2022/07/25 11:30:10;;;;;;;1.80;0.80;;;;;;;22.76;51.27;98799.23;105050;1273;62844;-23
2022/07/25 11:33:00;;;;;;;1.20;1.10;;;;;;;22.56;52.14;98799.35;104822;1274;75462;-24
2022/07/25 11:35:31;;;;;;;1.70;0.80;;;;;;;22.46;53.53;98791.55;104772;1275;76180;-23
2022/07/25 11:38:01;;;;;;;2.80;0.80;;;;;;;22.43;53.82;98796.45;104710;1274;74386;-23
2022/07/25 11:40:31;;;;;;;2.20;0.70;;;;;;;22.50;52.13;98797.61;104604;1277;61147;-24